sensor_id;sensor_type;location;lat;lon;timestamp;P1;durP1;ratioP1;P2;durP2;ratioP2
73632;SDS011;61927;50.080;14.418;2023-05-01T00:00:42;21.52;;;12.35;;
73632;SDS011;61927;50.080;14.418;2023-05-01T00:03:14;26.25;;;13.77;;
73632;SDS011;61927;50.080;14.418;2023-05-01T00:05:42;21.60;;;13.23;;
73632;SDS011;61927;50.080;14.418;2023-05-01T00:08:08;22.05;;;13.27;;
73632;SDS011;61927;50.080;14.418;2023-05-01T00:10:35;23.90;;;13.27;;
73632;SDS011;61927;50.080;14.418;2023-05-01T00:13:01;29.77;;;13.77;;
73632;SDS011;61927;50.080;14.418;2023-05-01T00:15:27;22.30;;;12.88;;
73632;SDS011;61927;50.080;14.418;2023-05-01T00:17:53;21.45;;;13.88;;
73632;SDS011;61927;50.080;14.418;2023-05-01T00:20:19;29.33;;;14.45;;
73632;SDS011;61927;50.080;14.418;2023-05-01T00:22:45;24.75;;;13.57;;
73632;SDS011;61927;50.080;14.418;2023-05-01T00:25:10;25.45;;;13.52;;
73632;SDS011;61927;50.080;14.418;2023-05-01T00:27:36;25.52;;;13.82;;
73632;SDS011;61927;50.080;14.418;2023-05-01T00:30:02;26.63;;;15.02;;
73632;SDS011;61927;50.080;14.418;2023-05-01T00:32:28;26.65;;;15.15;;
73632;SDS011;61927;50.080;14.418;2023-05-01T00:34:53;31.55;;;14.45;;
73632;SDS011;61927;50.080;14.418;2023-05-01T00:37:22;25.05;;;15.82;;
73632;SDS011;61927;50.080;14.418;2023-05-01T00:39:48;32.55;;;16.45;;
73632;SDS011;61927;50.080;14.418;2023-05-01T00:42:14;34.42;;;16.70;;
73632;SDS011;61927;50.080;14.418;2023-05-01T00:44:39;33.05;;;16.92;;
73632;SDS011;61927;50.080;14.418;2023-05-01T00:47:05;32.28;;;16.13;;
73632;SDS011;61927;50.080;14.418;2023-05-01T00:49:31;32.85;;;15.88;;
73632;SDS011;61927;50.080;14.418;2023-05-01T00:51:57;32.95;;;17.77;;
73632;SDS011;61927;50.080;14.418;2023-05-01T00:54:24;26.63;;;15.65;;
73632;SDS011;61927;50.080;14.418;2023-05-01T00:56:52;30.00;;;16.45;;
73632;SDS011;61927;50.080;14.418;2023-05-01T00:59:17;33.08;;;17.02;;
73632;SDS011;61927;50.080;14.418;2023-05-01T01:01:43;27.85;;;16.23;;
73632;SDS011;61927;50.080;14.418;2023-05-01T01:04:09;30.05;;;16.30;;
73632;SDS011;61927;50.080;14.418;2023-05-01T01:06:45;28.48;;;15.10;;
73632;SDS011;61927;50.080;14.418;2023-05-01T01:11:52;24.05;;;14.73;;
73632;SDS011;61927;50.080;14.418;2023-05-01T01:14:31;27.27;;;14.75;;
73632;SDS011;61927;50.080;14.418;2023-05-01T01:17:10;32.53;;;14.15;;
73632;SDS011;61927;50.080;14.418;2023-05-01T01:22:28;32.80;;;15.82;;
73632;SDS011;61927;50.080;14.418;2023-05-01T01:25:05;32.60;;;15.85;;
73632;SDS011;61927;50.080;14.418;2023-05-01T01:28:04;30.83;;;16.45;;
73632;SDS011;61927;50.080;14.418;2023-05-01T01:36:18;30.15;;;16.80;;
73632;SDS011;61927;50.080;14.418;2023-05-01T01:38:53;29.98;;;17.38;;
73632;SDS011;61927;50.080;14.418;2023-05-01T01:41:30;31.17;;;16.58;;
73632;SDS011;61927;50.080;14.418;2023-05-01T01:44:03;45.25;;;18.38;;
73632;SDS011;61927;50.080;14.418;2023-05-01T01:46:36;34.13;;;17.48;;
73632;SDS011;61927;50.080;14.418;2023-05-01T01:49:08;35.05;;;19.05;;
73632;SDS011;61927;50.080;14.418;2023-05-01T01:51:40;35.38;;;19.30;;
73632;SDS011;61927;50.080;14.418;2023-05-01T01:54:06;37.70;;;19.17;;
73632;SDS011;61927;50.080;14.418;2023-05-01T01:56:34;36.08;;;19.55;;
73632;SDS011;61927;50.080;14.418;2023-05-01T01:59:02;37.67;;;20.60;;
73632;SDS011;61927;50.080;14.418;2023-05-01T02:01:29;34.00;;;19.15;;
73632;SDS011;61927;50.080;14.418;2023-05-01T02:03:55;40.03;;;18.90;;
73632;SDS011;61927;50.080;14.418;2023-05-01T02:06:22;32.60;;;18.42;;
73632;SDS011;61927;50.080;14.418;2023-05-01T02:08:49;28.67;;;17.33;;
73632;SDS011;61927;50.080;14.418;2023-05-01T02:11:17;28.52;;;16.70;;
73632;SDS011;61927;50.080;14.418;2023-05-01T02:13:45;31.35;;;17.42;;
73632;SDS011;61927;50.080;14.418;2023-05-01T02:16:13;27.90;;;16.33;;
73632;SDS011;61927;50.080;14.418;2023-05-01T02:18:41;28.58;;;16.08;;
73632;SDS011;61927;50.080;14.418;2023-05-01T02:21:08;29.63;;;17.40;;
73632;SDS011;61927;50.080;14.418;2023-05-01T02:23:35;35.53;;;17.00;;
73632;SDS011;61927;50.080;14.418;2023-05-01T02:26:02;31.70;;;17.80;;
73632;SDS011;61927;50.080;14.418;2023-05-01T02:28:29;36.10;;;17.60;;
73632;SDS011;61927;50.080;14.418;2023-05-01T02:30:55;32.92;;;16.92;;
73632;SDS011;61927;50.080;14.418;2023-05-01T02:33:21;28.90;;;16.52;;
73632;SDS011;61927;50.080;14.418;2023-05-01T02:35:47;33.40;;;17.85;;
73632;SDS011;61927;50.080;14.418;2023-05-01T02:38:14;32.25;;;18.92;;
73632;SDS011;61927;50.080;14.418;2023-05-01T02:40:44;38.47;;;18.35;;
73632;SDS011;61927;50.080;14.418;2023-05-01T02:43:15;33.42;;;17.63;;
73632;SDS011;61927;50.080;14.418;2023-05-01T02:45:44;36.95;;;18.23;;
73632;SDS011;61927;50.080;14.418;2023-05-01T02:48:12;34.20;;;17.65;;
73632;SDS011;61927;50.080;14.418;2023-05-01T02:50:43;32.92;;;16.98;;
73632;SDS011;61927;50.080;14.418;2023-05-01T02:53:09;33.33;;;17.58;;
73632;SDS011;61927;50.080;14.418;2023-05-01T02:55:36;35.35;;;17.13;;
73632;SDS011;61927;50.080;14.418;2023-05-01T02:58:02;28.80;;;16.83;;
73632;SDS011;61927;50.080;14.418;2023-05-01T03:00:27;30.55;;;17.58;;
73632;SDS011;61927;50.080;14.418;2023-05-01T03:02:54;31.48;;;17.23;;
73632;SDS011;61927;50.080;14.418;2023-05-01T03:05:19;34.08;;;16.95;;
73632;SDS011;61927;50.080;14.418;2023-05-01T03:07:45;31.13;;;17.73;;
73632;SDS011;61927;50.080;14.418;2023-05-01T03:10:11;41.75;;;17.73;;
73632;SDS011;61927;50.080;14.418;2023-05-01T03:12:37;33.63;;;17.23;;
73632;SDS011;61927;50.080;14.418;2023-05-01T03:15:03;35.53;;;19.35;;
73632;SDS011;61927;50.080;14.418;2023-05-01T03:17:30;30.60;;;17.15;;
73632;SDS011;61927;50.080;14.418;2023-05-01T03:19:55;29.85;;;18.17;;
73632;SDS011;61927;50.080;14.418;2023-05-01T03:22:21;41.92;;;18.10;;
73632;SDS011;61927;50.080;14.418;2023-05-01T03:24:47;36.42;;;18.08;;
73632;SDS011;61927;50.080;14.418;2023-05-01T03:27:14;28.73;;;17.38;;
73632;SDS011;61927;50.080;14.418;2023-05-01T03:29:39;34.80;;;18.40;;
73632;SDS011;61927;50.080;14.418;2023-05-01T03:32:05;35.42;;;18.50;;
73632;SDS011;61927;50.080;14.418;2023-05-01T03:34:31;32.40;;;18.00;;
73632;SDS011;61927;50.080;14.418;2023-05-01T03:36:57;33.55;;;19.05;;
73632;SDS011;61927;50.080;14.418;2023-05-01T03:39:22;40.17;;;20.13;;
73632;SDS011;61927;50.080;14.418;2023-05-01T03:41:48;33.63;;;19.40;;
73632;SDS011;61927;50.080;14.418;2023-05-01T03:44:13;36.05;;;19.45;;
73632;SDS011;61927;50.080;14.418;2023-05-01T03:46:39;38.33;;;19.27;;
73632;SDS011;61927;50.080;14.418;2023-05-01T03:49:05;41.35;;;20.00;;
73632;SDS011;61927;50.080;14.418;2023-05-01T03:51:31;40.28;;;20.10;;
73632;SDS011;61927;50.080;14.418;2023-05-01T03:53:56;39.65;;;20.75;;
73632;SDS011;61927;50.080;14.418;2023-05-01T03:56:23;34.55;;;20.52;;
73632;SDS011;61927;50.080;14.418;2023-05-01T03:58:53;39.22;;;21.73;;
73632;SDS011;61927;50.080;14.418;2023-05-01T04:01:18;41.35;;;21.67;;
73632;SDS011;61927;50.080;14.418;2023-05-01T04:03:44;36.65;;;21.15;;
73632;SDS011;61927;50.080;14.418;2023-05-01T04:06:11;36.58;;;20.83;;
73632;SDS011;61927;50.080;14.418;2023-05-01T04:08:37;50.63;;;24.42;;
73632;SDS011;61927;50.080;14.418;2023-05-01T04:11:03;43.13;;;24.70;;
73632;SDS011;61927;50.080;14.418;2023-05-01T04:13:28;46.38;;;24.42;;
73632;SDS011;61927;50.080;14.418;2023-05-01T04:15:54;54.78;;;25.17;;
73632;SDS011;61927;50.080;14.418;2023-05-01T04:18:21;43.40;;;22.67;;
73632;SDS011;61927;50.080;14.418;2023-05-01T04:20:47;39.58;;;23.30;;
73632;SDS011;61927;50.080;14.418;2023-05-01T04:23:13;46.60;;;23.77;;
73632;SDS011;61927;50.080;14.418;2023-05-01T04:25:39;44.67;;;23.23;;
73632;SDS011;61927;50.080;14.418;2023-05-01T04:28:04;43.70;;;23.63;;
73632;SDS011;61927;50.080;14.418;2023-05-01T04:30:30;54.40;;;25.33;;
73632;SDS011;61927;50.080;14.418;2023-05-01T04:32:56;41.70;;;25.17;;
73632;SDS011;61927;50.080;14.418;2023-05-01T04:35:23;46.35;;;22.80;;
73632;SDS011;61927;50.080;14.418;2023-05-01T04:37:50;41.40;;;21.67;;
73632;SDS011;61927;50.080;14.418;2023-05-01T04:40:16;46.95;;;21.40;;
73632;SDS011;61927;50.080;14.418;2023-05-01T04:42:41;37.28;;;20.77;;
73632;SDS011;61927;50.080;14.418;2023-05-01T04:45:08;49.63;;;21.88;;
73632;SDS011;61927;50.080;14.418;2023-05-01T04:47:33;43.40;;;22.05;;
73632;SDS011;61927;50.080;14.418;2023-05-01T04:49:59;46.17;;;21.48;;
73632;SDS011;61927;50.080;14.418;2023-05-01T04:52:25;36.45;;;21.35;;
73632;SDS011;61927;50.080;14.418;2023-05-01T04:54:51;34.00;;;21.98;;
73632;SDS011;61927;50.080;14.418;2023-05-01T04:57:16;47.13;;;22.08;;
73632;SDS011;61927;50.080;14.418;2023-05-01T04:59:42;41.08;;;22.27;;
73632;SDS011;61927;50.080;14.418;2023-05-01T05:02:08;39.42;;;22.33;;
73632;SDS011;61927;50.080;14.418;2023-05-01T05:04:34;44.13;;;23.13;;
73632;SDS011;61927;50.080;14.418;2023-05-01T05:06:59;37.90;;;22.75;;
73632;SDS011;61927;50.080;14.418;2023-05-01T05:09:25;48.15;;;23.38;;
73632;SDS011;61927;50.080;14.418;2023-05-01T05:11:51;37.13;;;22.02;;
73632;SDS011;61927;50.080;14.418;2023-05-01T05:14:16;43.20;;;25.05;;
73632;SDS011;61927;50.080;14.418;2023-05-01T05:16:42;41.55;;;23.38;;
73632;SDS011;61927;50.080;14.418;2023-05-01T05:19:07;51.85;;;24.27;;
73632;SDS011;61927;50.080;14.418;2023-05-01T05:21:33;44.75;;;23.58;;
73632;SDS011;61927;50.080;14.418;2023-05-01T05:23:59;47.08;;;24.90;;
73632;SDS011;61927;50.080;14.418;2023-05-01T05:26:25;48.55;;;25.38;;
73632;SDS011;61927;50.080;14.418;2023-05-01T05:28:50;49.75;;;26.10;;
73632;SDS011;61927;50.080;14.418;2023-05-01T05:31:16;48.03;;;25.75;;
73632;SDS011;61927;50.080;14.418;2023-05-01T05:33:42;56.80;;;26.63;;
73632;SDS011;61927;50.080;14.418;2023-05-01T05:36:09;44.40;;;25.52;;
73632;SDS011;61927;50.080;14.418;2023-05-01T05:38:35;45.83;;;25.63;;
73632;SDS011;61927;50.080;14.418;2023-05-01T05:41:00;48.85;;;25.58;;
73632;SDS011;61927;50.080;14.418;2023-05-01T05:43:27;49.15;;;25.42;;
73632;SDS011;61927;50.080;14.418;2023-05-01T05:45:56;41.53;;;25.60;;
73632;SDS011;61927;50.080;14.418;2023-05-01T05:48:22;47.38;;;26.05;;
73632;SDS011;61927;50.080;14.418;2023-05-01T05:50:48;41.97;;;23.33;;
73632;SDS011;61927;50.080;14.418;2023-05-01T05:53:16;41.55;;;23.20;;
73632;SDS011;61927;50.080;14.418;2023-05-01T05:55:46;40.20;;;22.85;;
73632;SDS011;61927;50.080;14.418;2023-05-01T05:58:11;43.17;;;22.02;;
73632;SDS011;61927;50.080;14.418;2023-05-01T06:00:38;38.25;;;20.50;;
73632;SDS011;61927;50.080;14.418;2023-05-01T06:03:04;38.35;;;21.08;;
73632;SDS011;61927;50.080;14.418;2023-05-01T06:05:30;43.17;;;21.05;;
73632;SDS011;61927;50.080;14.418;2023-05-01T06:07:56;40.30;;;20.88;;
73632;SDS011;61927;50.080;14.418;2023-05-01T06:10:22;40.28;;;19.80;;
73632;SDS011;61927;50.080;14.418;2023-05-01T06:12:47;43.35;;;19.85;;
73632;SDS011;61927;50.080;14.418;2023-05-01T06:15:13;34.08;;;19.13;;
73632;SDS011;61927;50.080;14.418;2023-05-01T06:17:41;37.40;;;18.52;;
73632;SDS011;61927;50.080;14.418;2023-05-01T06:20:08;40.55;;;18.35;;
73632;SDS011;61927;50.080;14.418;2023-05-01T06:22:34;33.22;;;18.52;;
73632;SDS011;61927;50.080;14.418;2023-05-01T06:25:00;36.65;;;18.15;;
73632;SDS011;61927;50.080;14.418;2023-05-01T06:27:25;34.08;;;17.80;;
73632;SDS011;61927;50.080;14.418;2023-05-01T06:29:53;36.92;;;19.40;;
73632;SDS011;61927;50.080;14.418;2023-05-01T06:32:19;36.03;;;18.42;;
73632;SDS011;61927;50.080;14.418;2023-05-01T06:34:45;33.05;;;16.15;;
73632;SDS011;61927;50.080;14.418;2023-05-01T06:37:10;32.75;;;18.10;;
73632;SDS011;61927;50.080;14.418;2023-05-01T06:39:36;27.95;;;16.35;;
73632;SDS011;61927;50.080;14.418;2023-05-01T06:42:02;37.58;;;17.38;;
73632;SDS011;61927;50.080;14.418;2023-05-01T06:44:28;31.40;;;16.42;;
73632;SDS011;61927;50.080;14.418;2023-05-01T06:46:53;27.55;;;14.57;;
73632;SDS011;61927;50.080;14.418;2023-05-01T06:49:21;26.30;;;13.60;;
73632;SDS011;61927;50.080;14.418;2023-05-01T06:51:47;28.75;;;14.35;;
73632;SDS011;61927;50.080;14.418;2023-05-01T06:54:13;24.75;;;11.80;;
73632;SDS011;61927;50.080;14.418;2023-05-01T06:56:38;35.13;;;12.60;;
73632;SDS011;61927;50.080;14.418;2023-05-01T06:59:04;27.00;;;12.15;;
73632;SDS011;61927;50.080;14.418;2023-05-01T07:01:30;27.85;;;11.93;;
73632;SDS011;61927;50.080;14.418;2023-05-01T07:03:56;19.27;;;10.10;;
73632;SDS011;61927;50.080;14.418;2023-05-01T07:06:21;16.55;;;9.75;;
73632;SDS011;61927;50.080;14.418;2023-05-01T07:08:47;22.55;;;9.40;;
73632;SDS011;61927;50.080;14.418;2023-05-01T07:11:13;23.33;;;9.38;;
73632;SDS011;61927;50.080;14.418;2023-05-01T07:13:39;17.38;;;9.65;;
73632;SDS011;61927;50.080;14.418;2023-05-01T07:16:04;20.60;;;9.70;;
73632;SDS011;61927;50.080;14.418;2023-05-01T07:18:31;25.30;;;12.23;;
73632;SDS011;61927;50.080;14.418;2023-05-01T07:20:56;19.58;;;10.45;;
73632;SDS011;61927;50.080;14.418;2023-05-01T07:23:22;22.20;;;10.75;;
73632;SDS011;61927;50.080;14.418;2023-05-01T07:25:49;23.88;;;10.98;;
73632;SDS011;61927;50.080;14.418;2023-05-01T07:28:15;21.13;;;10.18;;
73632;SDS011;61927;50.080;14.418;2023-05-01T07:30:42;17.85;;;9.90;;
73632;SDS011;61927;50.080;14.418;2023-05-01T07:33:08;19.88;;;9.27;;
73632;SDS011;61927;50.080;14.418;2023-05-01T07:35:33;17.33;;;8.48;;
73632;SDS011;61927;50.080;14.418;2023-05-01T07:37:59;15.73;;;8.10;;
73632;SDS011;61927;50.080;14.418;2023-05-01T07:40:24;18.63;;;7.80;;
73632;SDS011;61927;50.080;14.418;2023-05-01T07:42:50;17.50;;;8.82;;
73632;SDS011;61927;50.080;14.418;2023-05-01T07:45:16;17.30;;;8.40;;
73632;SDS011;61927;50.080;14.418;2023-05-01T07:47:41;14.55;;;7.50;;
73632;SDS011;61927;50.080;14.418;2023-05-01T07:50:10;12.27;;;8.60;;
73632;SDS011;61927;50.080;14.418;2023-05-01T07:52:37;13.15;;;7.65;;
73632;SDS011;61927;50.080;14.418;2023-05-01T07:55:03;14.52;;;7.22;;
73632;SDS011;61927;50.080;14.418;2023-05-01T07:57:29;11.13;;;6.82;;
73632;SDS011;61927;50.080;14.418;2023-05-01T07:59:57;18.55;;;8.70;;
73632;SDS011;61927;50.080;14.418;2023-05-01T08:02:23;14.70;;;8.70;;
73632;SDS011;61927;50.080;14.418;2023-05-01T08:04:49;20.38;;;10.35;;
73632;SDS011;61927;50.080;14.418;2023-05-01T08:07:15;18.60;;;9.05;;
73632;SDS011;61927;50.080;14.418;2023-05-01T08:09:40;12.73;;;6.72;;
73632;SDS011;61927;50.080;14.418;2023-05-01T08:12:06;14.02;;;7.40;;
73632;SDS011;61927;50.080;14.418;2023-05-01T08:14:32;11.55;;;5.97;;
73632;SDS011;61927;50.080;14.418;2023-05-01T08:16:58;13.82;;;6.35;;
73632;SDS011;61927;50.080;14.418;2023-05-01T08:19:24;18.42;;;11.02;;
73632;SDS011;61927;50.080;14.418;2023-05-01T08:21:51;14.98;;;7.78;;
73632;SDS011;61927;50.080;14.418;2023-05-01T08:24:17;14.90;;;7.93;;
73632;SDS011;61927;50.080;14.418;2023-05-01T08:26:43;14.90;;;7.75;;
73632;SDS011;61927;50.080;14.418;2023-05-01T08:29:09;21.05;;;9.82;;
73632;SDS011;61927;50.080;14.418;2023-05-01T08:31:34;15.40;;;7.63;;
73632;SDS011;61927;50.080;14.418;2023-05-01T08:34:02;15.93;;;7.57;;
73632;SDS011;61927;50.080;14.418;2023-05-01T08:36:28;31.95;;;7.47;;
73632;SDS011;61927;50.080;14.418;2023-05-01T08:38:55;23.30;;;7.20;;
73632;SDS011;61927;50.080;14.418;2023-05-01T08:41:21;15.80;;;6.65;;
73632;SDS011;61927;50.080;14.418;2023-05-01T08:43:47;22.00;;;7.75;;
73632;SDS011;61927;50.080;14.418;2023-05-01T08:46:14;16.48;;;7.75;;
73632;SDS011;61927;50.080;14.418;2023-05-01T08:48:50;24.58;;;9.00;;
73632;SDS011;61927;50.080;14.418;2023-05-01T08:51:20;16.77;;;6.78;;
73632;SDS011;61927;50.080;14.418;2023-05-01T08:53:47;17.80;;;8.23;;
73632;SDS011;61927;50.080;14.418;2023-05-01T08:56:16;18.05;;;7.50;;
73632;SDS011;61927;50.080;14.418;2023-05-01T08:58:44;16.17;;;8.35;;
73632;SDS011;61927;50.080;14.418;2023-05-01T09:01:14;19.27;;;7.50;;
73632;SDS011;61927;50.080;14.418;2023-05-01T09:03:40;18.33;;;7.70;;
73632;SDS011;61927;50.080;14.418;2023-05-01T09:09:14;16.63;;;7.30;;
73632;SDS011;61927;50.080;14.418;2023-05-01T09:11:43;19.05;;;7.32;;
73632;SDS011;61927;50.080;14.418;2023-05-01T09:14:09;12.82;;;7.28;;
73632;SDS011;61927;50.080;14.418;2023-05-01T09:16:35;14.68;;;7.75;;
73632;SDS011;61927;50.080;14.418;2023-05-01T09:19:00;18.58;;;7.47;;
73632;SDS011;61927;50.080;14.418;2023-05-01T09:21:26;13.88;;;7.63;;
73632;SDS011;61927;50.080;14.418;2023-05-01T09:23:55;17.80;;;7.93;;
73632;SDS011;61927;50.080;14.418;2023-05-01T09:26:21;15.52;;;7.18;;
73632;SDS011;61927;50.080;14.418;2023-05-01T09:28:47;17.08;;;7.80;;
73632;SDS011;61927;50.080;14.418;2023-05-01T09:31:20;20.98;;;7.15;;
73632;SDS011;61927;50.080;14.418;2023-05-01T09:36:23;8.82;;;5.10;;
73632;SDS011;61927;50.080;14.418;2023-05-01T09:38:50;12.23;;;5.90;;
73632;SDS011;61927;50.080;14.418;2023-05-01T09:41:16;9.38;;;5.15;;
73632;SDS011;61927;50.080;14.418;2023-05-01T09:43:41;12.93;;;5.55;;
73632;SDS011;61927;50.080;14.418;2023-05-01T09:46:14;15.38;;;5.45;;
73632;SDS011;61927;50.080;14.418;2023-05-01T09:48:39;10.60;;;6.43;;
73632;SDS011;61927;50.080;14.418;2023-05-01T09:54:02;11.23;;;6.30;;
73632;SDS011;61927;50.080;14.418;2023-05-01T09:56:30;19.55;;;7.28;;
73632;SDS011;61927;50.080;14.418;2023-05-01T09:58:58;21.70;;;7.03;;
73632;SDS011;61927;50.080;14.418;2023-05-01T10:01:40;21.05;;;7.13;;
73632;SDS011;61927;50.080;14.418;2023-05-01T10:04:07;12.13;;;6.13;;
73632;SDS011;61927;50.080;14.418;2023-05-01T10:06:37;9.73;;;5.80;;
73632;SDS011;61927;50.080;14.418;2023-05-01T10:09:03;9.30;;;5.32;;
73632;SDS011;61927;50.080;14.418;2023-05-01T10:11:50;13.48;;;5.38;;
73632;SDS011;61927;50.080;14.418;2023-05-01T10:14:18;16.60;;;5.72;;
73632;SDS011;61927;50.080;14.418;2023-05-01T10:16:44;15.48;;;5.55;;
73632;SDS011;61927;50.080;14.418;2023-05-01T10:19:11;10.80;;;4.78;;
73632;SDS011;61927;50.080;14.418;2023-05-01T10:21:37;12.25;;;5.60;;
73632;SDS011;61927;50.080;14.418;2023-05-01T10:24:03;7.93;;;4.78;;
73632;SDS011;61927;50.080;14.418;2023-05-01T10:26:33;19.60;;;8.35;;
73632;SDS011;61927;50.080;14.418;2023-05-01T10:28:59;10.85;;;6.15;;
73632;SDS011;61927;50.080;14.418;2023-05-01T10:31:26;11.65;;;5.00;;
73632;SDS011;61927;50.080;14.418;2023-05-01T10:33:54;11.18;;;4.60;;
73632;SDS011;61927;50.080;14.418;2023-05-01T10:39:01;9.07;;;4.65;;
73632;SDS011;61927;50.080;14.418;2023-05-01T10:42:28;10.15;;;4.70;;
73632;SDS011;61927;50.080;14.418;2023-05-01T10:44:23;12.40;;;4.75;;
73632;SDS011;61927;50.080;14.418;2023-05-01T10:46:50;11.95;;;4.25;;
73632;SDS011;61927;50.080;14.418;2023-05-01T10:49:16;12.15;;;5.32;;
73632;SDS011;61927;50.080;14.418;2023-05-01T10:54:24;15.15;;;4.32;;
73632;SDS011;61927;50.080;14.418;2023-05-01T10:56:51;7.68;;;4.47;;
73632;SDS011;61927;50.080;14.418;2023-05-01T10:59:17;17.77;;;4.15;;
73632;SDS011;61927;50.080;14.418;2023-05-01T11:01:44;6.90;;;4.15;;
73632;SDS011;61927;50.080;14.418;2023-05-01T11:12:15;11.15;;;3.95;;
73632;SDS011;61927;50.080;14.418;2023-05-01T11:15:01;13.88;;;4.00;;
73632;SDS011;61927;50.080;14.418;2023-05-01T11:20:07;13.65;;;4.28;;
73632;SDS011;61927;50.080;14.418;2023-05-01T11:22:37;13.27;;;3.65;;
73632;SDS011;61927;50.080;14.418;2023-05-01T11:25:16;8.43;;;3.78;;
73632;SDS011;61927;50.080;14.418;2023-05-01T11:27:56;7.00;;;3.97;;
73632;SDS011;61927;50.080;14.418;2023-05-01T11:30:22;9.38;;;4.03;;
73632;SDS011;61927;50.080;14.418;2023-05-01T11:32:49;8.70;;;3.75;;
73632;SDS011;61927;50.080;14.418;2023-05-01T11:35:16;14.20;;;4.40;;
73632;SDS011;61927;50.080;14.418;2023-05-01T11:37:43;10.02;;;4.68;;
73632;SDS011;61927;50.080;14.418;2023-05-01T11:42:47;7.60;;;3.63;;
73632;SDS011;61927;50.080;14.418;2023-05-01T11:45:14;13.73;;;5.68;;
73632;SDS011;61927;50.080;14.418;2023-05-01T11:47:40;19.40;;;4.22;;
73632;SDS011;61927;50.080;14.418;2023-05-01T11:50:06;6.32;;;3.28;;
73632;SDS011;61927;50.080;14.418;2023-05-01T11:52:42;7.95;;;3.35;;
73632;SDS011;61927;50.080;14.418;2023-05-01T11:55:09;9.80;;;2.92;;
73632;SDS011;61927;50.080;14.418;2023-05-01T11:57:52;12.63;;;3.72;;
73632;SDS011;61927;50.080;14.418;2023-05-01T12:00:27;8.85;;;3.25;;
73632;SDS011;61927;50.080;14.418;2023-05-01T12:02:58;8.77;;;3.17;;
73632;SDS011;61927;50.080;14.418;2023-05-01T12:05:25;9.35;;;3.13;;
73632;SDS011;61927;50.080;14.418;2023-05-01T12:08:26;10.02;;;3.30;;
73632;SDS011;61927;50.080;14.418;2023-05-01T12:10:54;8.70;;;2.92;;
73632;SDS011;61927;50.080;14.418;2023-05-01T12:13:21;9.15;;;3.97;;
73632;SDS011;61927;50.080;14.418;2023-05-01T12:15:49;29.65;;;7.90;;
73632;SDS011;61927;50.080;14.418;2023-05-01T12:18:17;6.32;;;2.67;;
73632;SDS011;61927;50.080;14.418;2023-05-01T12:20:47;6.70;;;3.55;;
73632;SDS011;61927;50.080;14.418;2023-05-01T12:23:16;5.32;;;3.00;;
73632;SDS011;61927;50.080;14.418;2023-05-01T12:25:44;9.75;;;2.72;;
73632;SDS011;61927;50.080;14.418;2023-05-01T12:28:14;7.10;;;3.05;;
73632;SDS011;61927;50.080;14.418;2023-05-01T12:30:42;5.78;;;2.70;;
73632;SDS011;61927;50.080;14.418;2023-05-01T12:35:39;8.60;;;4.03;;
73632;SDS011;61927;50.080;14.418;2023-05-01T12:38:13;6.65;;;2.97;;
73632;SDS011;61927;50.080;14.418;2023-05-01T12:40:50;5.10;;;2.90;;
73632;SDS011;61927;50.080;14.418;2023-05-01T12:43:30;5.72;;;3.00;;
73632;SDS011;61927;50.080;14.418;2023-05-01T12:46:00;11.20;;;3.10;;
73632;SDS011;61927;50.080;14.418;2023-05-01T12:48:28;4.32;;;2.67;;
73632;SDS011;61927;50.080;14.418;2023-05-01T12:50:54;7.72;;;3.50;;
73632;SDS011;61927;50.080;14.418;2023-05-01T12:53:24;4.40;;;2.20;;
73632;SDS011;61927;50.080;14.418;2023-05-01T12:55:51;3.00;;;2.25;;
73632;SDS011;61927;50.080;14.418;2023-05-01T12:58:18;5.72;;;2.67;;
73632;SDS011;61927;50.080;14.418;2023-05-01T13:00:45;12.40;;;2.13;;
73632;SDS011;61927;50.080;14.418;2023-05-01T13:03:23;7.93;;;3.50;;
73632;SDS011;61927;50.080;14.418;2023-05-01T13:08:29;8.43;;;2.03;;
73632;SDS011;61927;50.080;14.418;2023-05-01T13:10:59;5.72;;;2.30;;
73632;SDS011;61927;50.080;14.418;2023-05-01T13:13:30;1.80;;;1.70;;
73632;SDS011;61927;50.080;14.418;2023-05-01T13:16:08;4.90;;;1.55;;
73632;SDS011;61927;50.080;14.418;2023-05-01T13:18:43;3.08;;;1.60;;
73632;SDS011;61927;50.080;14.418;2023-05-01T13:21:17;14.65;;;8.52;;
73632;SDS011;61927;50.080;14.418;2023-05-01T13:23:51;8.57;;;2.28;;
73632;SDS011;61927;50.080;14.418;2023-05-01T13:26:23;6.45;;;3.45;;
73632;SDS011;61927;50.080;14.418;2023-05-01T13:28:55;2.00;;;1.77;;
73632;SDS011;61927;50.080;14.418;2023-05-01T13:31:22;13.90;;;5.75;;
73632;SDS011;61927;50.080;14.418;2023-05-01T13:33:49;3.83;;;1.90;;
73632;SDS011;61927;50.080;14.418;2023-05-01T13:36:17;7.10;;;2.00;;
73632;SDS011;61927;50.080;14.418;2023-05-01T13:38:46;4.80;;;2.33;;
73632;SDS011;61927;50.080;14.418;2023-05-01T13:41:18;5.70;;;1.60;;
73632;SDS011;61927;50.080;14.418;2023-05-01T13:43:48;3.78;;;1.77;;
73632;SDS011;61927;50.080;14.418;2023-05-01T13:46:15;2.22;;;1.55;;
73632;SDS011;61927;50.080;14.418;2023-05-01T13:48:42;7.35;;;2.25;;
73632;SDS011;61927;50.080;14.418;2023-05-01T13:51:08;5.15;;;1.80;;
73632;SDS011;61927;50.080;14.418;2023-05-01T13:53:37;5.93;;;1.90;;
73632;SDS011;61927;50.080;14.418;2023-05-01T13:56:04;9.18;;;4.07;;
73632;SDS011;61927;50.080;14.418;2023-05-01T13:58:31;7.20;;;2.80;;
73632;SDS011;61927;50.080;14.418;2023-05-01T14:00:57;7.43;;;1.98;;
73632;SDS011;61927;50.080;14.418;2023-05-01T14:03:23;5.70;;;2.08;;
73632;SDS011;61927;50.080;14.418;2023-05-01T14:05:49;3.35;;;2.42;;
73632;SDS011;61927;50.080;14.418;2023-05-01T14:08:15;4.35;;;2.50;;
73632;SDS011;61927;50.080;14.418;2023-05-01T14:10:46;5.85;;;2.17;;
73632;SDS011;61927;50.080;14.418;2023-05-01T14:13:11;4.43;;;1.92;;
73632;SDS011;61927;50.080;14.418;2023-05-01T14:15:41;8.38;;;2.15;;
73632;SDS011;61927;50.080;14.418;2023-05-01T14:18:14;2.67;;;2.00;;
73632;SDS011;61927;50.080;14.418;2023-05-01T14:20:41;3.90;;;2.25;;
73632;SDS011;61927;50.080;14.418;2023-05-01T14:23:14;2.00;;;1.90;;
73632;SDS011;61927;50.080;14.418;2023-05-01T14:25:41;2.42;;;2.13;;
73632;SDS011;61927;50.080;14.418;2023-05-01T14:28:09;4.70;;;1.90;;
73632;SDS011;61927;50.080;14.418;2023-05-01T14:30:38;2.50;;;1.90;;
73632;SDS011;61927;50.080;14.418;2023-05-01T14:33:06;6.75;;;2.22;;
73632;SDS011;61927;50.080;14.418;2023-05-01T14:35:35;2.30;;;1.70;;
73632;SDS011;61927;50.080;14.418;2023-05-01T14:40:34;4.82;;;2.33;;
73632;SDS011;61927;50.080;14.418;2023-05-01T14:43:00;3.55;;;2.75;;
73632;SDS011;61927;50.080;14.418;2023-05-01T14:45:26;3.45;;;1.90;;
73632;SDS011;61927;50.080;14.418;2023-05-01T14:47:52;5.28;;;1.90;;
73632;SDS011;61927;50.080;14.418;2023-05-01T14:50:19;11.30;;;3.20;;
73632;SDS011;61927;50.080;14.418;2023-05-01T14:52:51;9.38;;;2.03;;
73632;SDS011;61927;50.080;14.418;2023-05-01T14:55:18;3.35;;;2.10;;
73632;SDS011;61927;50.080;14.418;2023-05-01T14:57:50;1.98;;;1.80;;
73632;SDS011;61927;50.080;14.418;2023-05-01T15:00:15;3.08;;;2.00;;
73632;SDS011;61927;50.080;14.418;2023-05-01T15:02:42;1.83;;;1.70;;
73632;SDS011;61927;50.080;14.418;2023-05-01T15:05:07;3.47;;;2.00;;
73632;SDS011;61927;50.080;14.418;2023-05-01T15:07:33;3.25;;;1.63;;